createdAt,value
2023-04-04T00:01:32.784Z,1.37
2023-04-04T00:03:34.387Z,1.34
2023-04-04T00:05:36.355Z,1.31
2023-04-04T00:07:37.909Z,1.32
2023-04-04T00:09:39.383Z,1.29
2023-04-04T00:11:41.810Z,1.25
2023-04-04T00:13:43.415Z,1.23
2023-04-04T00:15:44.903Z,1.22
2023-04-04T00:17:46.606Z,1.20
2023-04-04T00:19:48.089Z,1.18
2023-04-04T00:21:50.360Z,1.15
2023-04-04T00:23:54.532Z,1.12
2023-04-04T00:25:56.002Z,1.10
2023-04-04T00:28:00.752Z,1.06
2023-04-04T00:30:02.707Z,1.03
2023-04-04T00:32:04.274Z,1.01
2023-04-04T00:34:05.735Z,0.97
2023-04-04T00:36:07.842Z,0.93
2023-04-04T00:38:09.346Z,0.90
2023-04-04T00:40:11.018Z,0.87
2023-04-04T00:42:12.808Z,0.82
2023-04-04T00:44:14.379Z,0.78
2023-04-04T00:46:17.608Z,0.73
2023-04-04T00:48:20.783Z,0.66
2023-04-04T00:50:22.269Z,0.63
2023-04-04T00:52:24.018Z,0.58
2023-04-04T00:54:25.567Z,0.53
2023-04-04T00:56:27.151Z,0.51
2023-04-04T00:58:29.915Z,0.49
2023-04-04T01:00:34.771Z,0.46
2023-04-04T01:02:36.879Z,0.42
2023-04-04T01:04:38.883Z,0.39
2023-04-04T01:06:40.596Z,0.37
2023-04-04T01:08:43.547Z,0.31
2023-04-04T01:10:45.077Z,0.29
2023-04-04T01:12:47.557Z,0.28
2023-04-04T01:14:49.035Z,0.25
2023-04-04T01:16:51.574Z,0.23
2023-04-04T01:18:54.876Z,0.20
2023-04-04T01:21:09.993Z,0.18
2023-04-04T01:23:12.777Z,0.16
2023-04-04T01:25:14.859Z,0.15
2023-04-04T01:27:16.295Z,0.17
2023-04-04T01:29:17.898Z,0.15
2023-04-04T01:31:28.180Z,0.15
2023-04-04T01:33:34.628Z,0.15
2023-04-04T01:35:47.377Z,0.16
2023-04-04T01:37:52.682Z,0.15
2023-04-04T01:39:59.303Z,0.14
2023-04-04T01:42:03.126Z,0.13
2023-04-04T01:44:04.817Z,0.13
2023-04-04T01:46:06.808Z,0.12
2023-04-04T01:48:09.115Z,0.12
2023-04-04T01:50:11.817Z,0.09
2023-04-04T01:52:13.630Z,0.07
2023-04-04T01:54:15.470Z,0.05
2023-04-04T01:56:16.985Z,0.02
2023-04-04T01:58:18.437Z,0.02
2023-04-04T02:00:19.931Z,0.00
2023-04-04T02:02:21.567Z,-0.01
2023-04-04T02:04:23.259Z,-0.02
2023-04-04T02:06:24.806Z,-0.05
2023-04-04T02:08:26.274Z,-0.06
2023-04-04T02:10:27.745Z,-0.08
2023-04-04T02:12:29.252Z,-0.08
2023-04-04T02:14:30.715Z,-0.09
2023-04-04T02:16:32.193Z,-0.09
2023-04-04T02:18:34.401Z,-0.11
2023-04-04T02:20:35.882Z,-0.11
2023-04-04T02:22:37.355Z,-0.13
2023-04-04T02:24:38.814Z,-0.14
2023-04-04T02:26:40.592Z,-0.16
2023-04-04T02:28:42.308Z,-0.19
2023-04-04T02:30:43.856Z,-0.20
2023-04-04T02:32:45.312Z,-0.21
2023-04-04T02:34:46.889Z,-0.23
2023-04-04T02:36:48.458Z,-0.24
2023-04-04T02:38:49.947Z,-0.25
2023-04-04T02:40:51.701Z,-0.27
2023-04-04T02:42:53.161Z,-0.29
2023-04-04T02:44:54.911Z,-0.31
2023-04-04T02:46:57.706Z,-0.34
2023-04-04T02:48:59.194Z,-0.36
2023-04-04T02:51:00.730Z,-0.40
2023-04-04T02:53:03.198Z,-0.44
2023-04-04T02:55:05.621Z,-0.47
2023-04-04T02:57:07.424Z,-0.48
2023-04-04T02:59:09.012Z,-0.48
2023-04-04T03:01:10.690Z,-0.51
2023-04-04T03:03:12.393Z,-0.52
2023-04-04T03:05:13.986Z,-0.54
2023-04-04T03:07:15.587Z,-0.57
2023-04-04T03:09:17.294Z,-0.57
2023-04-04T03:11:21.287Z,-0.58
2023-04-04T03:13:23.015Z,-0.60
2023-04-04T03:15:25.872Z,-0.63
2023-04-04T03:17:27.527Z,-0.64
2023-04-04T03:19:29.402Z,-0.66
2023-04-04T03:21:31.272Z,-0.68
2023-04-04T03:23:32.758Z,-0.72
2023-04-04T03:25:34.210Z,-0.71
2023-04-04T03:27:35.960Z,-0.74
2023-04-04T03:29:37.630Z,-0.78
2023-04-04T03:31:39.258Z,-0.77
2023-04-04T03:33:42.611Z,-0.76
2023-04-04T03:35:44.331Z,-0.74
2023-04-04T03:37:46.048Z,-0.76
2023-04-04T03:39:47.840Z,-0.75
2023-04-04T03:41:49.381Z,-0.75
2023-04-04T03:43:50.907Z,-0.75
2023-04-04T03:45:52.389Z,-0.75
2023-04-04T03:47:54.216Z,-0.75
2023-04-04T03:49:56.118Z,-0.78
2023-04-04T03:51:58.140Z,-0.79
2023-04-04T03:53:59.660Z,-0.81
2023-04-04T03:56:01.451Z,-0.82
2023-04-04T03:58:02.988Z,-0.83
2023-04-04T04:00:04.912Z,-0.85
2023-04-04T04:02:06.907Z,-0.87
2023-04-04T04:04:08.485Z,-0.86
2023-04-04T04:06:09.959Z,-0.87
2023-04-04T04:08:11.712Z,-0.88
2023-04-04T04:10:14.333Z,-0.89
2023-04-04T04:12:15.854Z,-0.90
2023-04-04T04:14:17.955Z,-0.89
2023-04-04T04:16:19.604Z,-0.90
2023-04-04T04:18:21.306Z,-0.90
2023-04-04T04:20:23.154Z,-0.90
2023-04-04T04:22:24.655Z,-0.89
2023-04-04T04:24:26.156Z,-0.89
2023-04-04T04:26:27.701Z,-0.88
2023-04-04T04:28:34.101Z,-0.87
2023-04-04T04:30:36.115Z,-0.85
2023-04-04T04:32:37.725Z,-0.85
2023-04-04T04:34:39.196Z,-0.86
2023-04-04T04:36:41.030Z,-0.85
2023-04-04T04:38:42.856Z,-0.86
2023-04-04T04:40:44.326Z,-0.84
2023-04-04T04:42:46.441Z,-0.84
2023-04-04T04:44:47.978Z,-0.84
2023-04-04T04:46:49.469Z,-0.84
2023-04-04T04:48:51.087Z,-0.84
2023-04-04T04:50:52.599Z,-0.84
2023-04-04T04:52:54.106Z,-0.84
2023-04-04T04:54:55.981Z,-0.85
2023-04-04T04:56:57.664Z,-0.88
2023-04-04T04:58:59.254Z,-0.89
2023-04-04T05:01:01.111Z,-0.89
2023-04-04T05:03:02.707Z,-0.89
2023-04-04T05:05:04.938Z,-0.88
2023-04-04T05:07:08.290Z,-0.89
2023-04-04T05:09:09.790Z,-0.87
2023-04-04T05:11:11.255Z,-0.89
2023-04-04T05:13:14.014Z,-0.90
2023-04-04T05:15:15.630Z,-0.90
2023-04-04T05:17:17.141Z,-0.91
2023-04-04T05:19:18.660Z,-0.90
2023-04-04T05:21:20.234Z,-0.91
2023-04-04T05:23:22.276Z,-0.90
2023-04-04T05:25:23.805Z,-0.89
2023-04-04T05:27:25.887Z,-0.89
2023-04-04T05:29:28.018Z,-0.87
2023-04-04T05:31:29.564Z,-0.87
2023-04-04T05:33:31.162Z,-0.85
2023-04-04T05:35:32.707Z,-0.82
2023-04-04T05:37:34.881Z,-0.79
2023-04-04T05:39:37.784Z,-0.78
2023-04-04T05:41:39.437Z,-0.75
2023-04-04T05:43:40.920Z,-0.71
2023-04-04T05:45:42.639Z,-0.67
2023-04-04T05:47:44.822Z,-0.61
2023-04-04T05:49:46.379Z,-0.54
2023-04-04T05:51:47.858Z,-0.48
2023-04-04T05:53:49.361Z,-0.43
2023-04-04T05:55:53.876Z,-0.37
2023-04-04T05:57:56.773Z,-0.27
2023-04-04T05:59:58.707Z,-0.20
2023-04-04T06:02:00.220Z,-0.12
2023-04-04T06:04:01.711Z,-0.05
2023-04-04T06:06:04.664Z,0.01
2023-04-04T06:08:06.492Z,0.08
2023-04-04T06:10:08.889Z,0.14
2023-04-04T06:12:10.525Z,0.19
2023-04-04T06:14:13.933Z,0.24
2023-04-04T06:16:17.029Z,0.28
2023-04-04T06:18:18.743Z,0.34
2023-04-04T06:20:22.618Z,0.38
2023-04-04T06:22:24.156Z,0.42
2023-04-04T06:24:25.658Z,0.42
2023-04-04T06:26:27.187Z,0.45
2023-04-04T06:28:28.818Z,0.48
2023-04-04T06:30:30.648Z,0.50
2023-04-04T06:32:32.361Z,0.58
2023-04-04T06:34:33.843Z,0.63
2023-04-04T06:36:35.346Z,0.65
2023-04-04T06:38:37.000Z,0.72
2023-04-04T06:40:39.110Z,0.80
2023-04-04T06:42:49.425Z,0.87
2023-04-04T06:44:51.046Z,0.93
2023-04-04T06:46:52.950Z,0.96
2023-04-04T06:48:54.950Z,0.96
2023-04-04T06:50:56.578Z,1.02
2023-04-04T06:52:58.192Z,1.07
2023-04-04T06:54:59.657Z,1.08
2023-04-04T06:57:01.318Z,1.10
2023-04-04T06:59:03.474Z,1.16
2023-04-04T07:01:05.102Z,1.20
2023-04-04T07:03:06.622Z,1.24
2023-04-04T07:05:08.573Z,1.27
2023-04-04T07:07:10.037Z,1.31
2023-04-04T07:09:21.925Z,1.34
2023-04-04T07:11:29.078Z,1.39
2023-04-04T07:13:30.569Z,1.42
2023-04-04T07:15:32.085Z,1.45
2023-04-04T07:17:37.874Z,1.50
2023-04-04T07:19:39.460Z,1.56
2023-04-04T07:21:40.917Z,1.62
2023-04-04T07:23:42.433Z,1.68
2023-04-04T07:25:44.517Z,1.73
2023-04-04T07:27:46.284Z,1.77
2023-04-04T07:29:47.748Z,1.82
2023-04-04T07:31:49.290Z,1.90
2023-04-04T07:33:53.954Z,1.93
2023-04-04T07:35:55.428Z,1.99
2023-04-04T07:37:57.983Z,2.02
2023-04-04T07:39:59.672Z,2.05
2023-04-04T07:42:01.397Z,2.11
2023-04-04T07:44:02.911Z,2.14
2023-04-04T07:46:04.511Z,2.18
2023-04-04T07:48:06.353Z,2.16
2023-04-04T07:50:08.178Z,2.23
2023-04-04T07:52:09.893Z,2.28
2023-04-04T07:54:11.382Z,2.30
2023-04-04T07:56:12.832Z,2.36
2023-04-04T07:58:14.427Z,2.43
2023-04-04T08:00:17.634Z,2.47
2023-04-04T08:02:19.133Z,2.53
2023-04-04T08:04:20.755Z,2.60
2023-04-04T08:06:22.572Z,2.65
2023-04-04T08:08:24.167Z,2.71
2023-04-04T08:10:25.721Z,2.73
2023-04-04T08:12:27.817Z,2.77
2023-04-04T08:14:29.463Z,2.81
2023-04-04T08:16:31.223Z,2.86
2023-04-04T08:18:33.564Z,2.91
2023-04-04T08:20:35.748Z,2.96
2023-04-04T08:22:37.212Z,2.97
2023-04-04T08:24:38.670Z,2.99
2023-04-04T08:26:40.158Z,3.06
2023-04-04T08:28:41.694Z,3.11
2023-04-04T08:30:43.243Z,3.15
2023-04-04T08:32:45.930Z,3.14
2023-04-04T08:34:48.086Z,3.17
2023-04-04T08:36:49.541Z,3.25
2023-04-04T08:38:51.305Z,3.33
2023-04-04T08:40:53.560Z,3.42
2023-04-04T08:42:55.570Z,3.50
2023-04-04T08:44:59.467Z,3.57
2023-04-04T08:47:05.294Z,3.65
2023-04-04T08:49:07.242Z,3.69
2023-04-04T08:51:12.202Z,3.66
2023-04-04T08:53:14.417Z,3.67
2023-04-04T08:55:16.692Z,3.68
2023-04-04T08:57:18.190Z,3.68
2023-04-04T08:59:20.913Z,3.67
2023-04-04T09:01:22.917Z,3.76
2023-04-04T09:03:27.314Z,3.83
2023-04-04T09:05:29.350Z,3.89
2023-04-04T09:07:32.046Z,3.96
2023-04-04T09:09:34.330Z,4.06
2023-04-04T09:11:36.789Z,4.19
2023-04-04T09:13:41.388Z,4.31
2023-04-04T09:15:47.190Z,4.33
2023-04-04T09:17:49.046Z,4.33
2023-04-04T09:19:50.818Z,4.36
2023-04-04T09:21:52.287Z,4.34
2023-04-04T09:24:01.999Z,4.42
2023-04-04T09:26:04.631Z,4.52
2023-04-04T09:28:06.498Z,4.59
2023-04-04T09:30:09.502Z,4.70
2023-04-04T09:32:16.280Z,4.80
2023-04-04T09:34:19.115Z,4.84
2023-04-04T09:36:21.037Z,4.86
2023-04-04T09:38:25.227Z,4.97
2023-04-04T09:40:30.039Z,5.02
2023-04-04T09:42:32.701Z,5.01
2023-04-04T09:44:36.896Z,4.95
2023-04-04T09:46:39.752Z,4.97
2023-04-04T09:48:50.861Z,4.96
2023-04-04T09:50:52.341Z,5.01
2023-04-04T09:52:56.927Z,5.07
2023-04-04T09:55:00.012Z,5.13
2023-04-04T09:57:01.710Z,5.12
2023-04-04T09:59:05.090Z,5.24
2023-04-04T10:01:10.159Z,5.29
2023-04-04T10:03:14.162Z,5.40
2023-04-04T10:05:16.895Z,5.50
2023-04-04T10:07:18.558Z,5.67
2023-04-04T10:09:20.122Z,5.81
2023-04-04T10:11:33.568Z,5.90
2023-04-04T10:13:36.883Z,5.98
2023-04-04T10:15:38.536Z,5.97
2023-04-04T10:17:41.700Z,6.08
2023-04-04T10:19:44.158Z,6.10
2023-04-04T10:21:47.779Z,6.10
2023-04-04T10:23:49.689Z,6.13
2023-04-04T10:25:52.456Z,6.22
2023-04-04T10:27:53.948Z,6.37
2023-04-04T10:29:56.675Z,6.50
2023-04-04T10:32:06.216Z,6.58
2023-04-04T10:34:40.112Z,6.66
2023-04-04T10:36:58.275Z,6.84
2023-04-04T10:39:13.348Z,6.95
2023-04-04T10:41:15.990Z,7.10
2023-04-04T10:43:25.004Z,7.09
2023-04-04T10:45:26.931Z,7.16
2023-04-04T10:47:30.751Z,7.36
2023-04-04T10:49:33.438Z,7.54
2023-04-04T10:51:45.178Z,7.80
2023-04-04T10:53:54.888Z,8.10
2023-04-04T10:55:56.708Z,8.26
2023-04-04T10:57:59.092Z,8.47
2023-04-04T11:00:10.524Z,8.77
2023-04-04T11:02:12.130Z,9.12
2023-04-04T11:04:21.885Z,9.60
2023-04-04T11:06:24.729Z,10.06
2023-04-04T11:08:28.653Z,10.65
2023-04-04T11:10:33.331Z,11.00
2023-04-04T11:12:45.171Z,11.27
2023-04-04T11:15:02.446Z,11.61
2023-04-04T11:17:05.431Z,11.79
2023-04-04T11:19:09.144Z,12.23
2023-04-04T11:21:24.754Z,12.68
2023-04-04T11:23:27.494Z,13.29
2023-04-04T11:25:31.030Z,13.66
2023-04-04T11:27:32.540Z,13.79
2023-04-04T11:29:52.439Z,13.80
2023-04-04T11:31:54.216Z,13.95
2023-04-04T11:34:14.556Z,14.14
2023-04-04T11:36:37.743Z,14.27
2023-04-04T11:38:40.326Z,14.17
2023-04-04T11:40:44.745Z,14.29
2023-04-04T11:42:52.495Z,14.59
2023-04-04T11:44:59.930Z,14.86
2023-04-04T11:47:09.099Z,14.81
2023-04-04T11:49:11.394Z,15.00
2023-04-04T11:51:13.789Z,15.24
2023-04-04T11:53:15.842Z,15.40
2023-04-04T11:55:22.827Z,15.59
2023-04-04T11:57:24.316Z,16.02
2023-04-04T11:59:25.784Z,16.30
2023-04-04T12:01:27.551Z,16.54
2023-04-04T12:03:30.012Z,16.76
2023-04-04T12:05:31.968Z,16.67
2023-04-04T12:07:35.276Z,16.77
2023-04-04T12:09:37.315Z,16.63
2023-04-04T12:11:39.696Z,16.37
2023-04-04T12:13:44.780Z,15.76
2023-04-04T12:15:48.040Z,15.54
2023-04-04T12:17:51.265Z,15.87
2023-04-04T12:19:53.120Z,15.78
2023-04-04T12:21:54.715Z,15.94
2023-04-04T12:23:56.536Z,15.65
2023-04-04T12:25:58.563Z,14.85
2023-04-04T12:28:02.602Z,14.76
2023-04-04T12:30:06.944Z,14.84
2023-04-04T12:32:10.768Z,15.47
2023-04-04T12:34:19.551Z,15.95
2023-04-04T12:36:21.266Z,16.02
2023-04-04T12:38:22.895Z,15.71
2023-04-04T12:40:24.455Z,15.51
2023-04-04T12:42:26.420Z,15.38
2023-04-04T12:44:33.576Z,15.40
2023-04-04T12:46:39.626Z,15.35
2023-04-04T12:48:41.681Z,15.42
2023-04-04T12:50:51.947Z,15.60
2023-04-04T12:53:13.579Z,15.73
2023-04-04T12:55:21.776Z,15.92
2023-04-04T12:57:25.575Z,16.09
2023-04-04T12:59:34.598Z,16.17
2023-04-04T13:01:37.585Z,16.18
2023-04-04T13:03:39.238Z,16.18
2023-04-04T13:05:43.113Z,16.17
2023-04-04T13:07:44.912Z,16.16
2023-04-04T13:09:58.568Z,16.15
2023-04-04T13:12:05.818Z,16.05
2023-04-04T13:14:07.554Z,15.97
2023-04-04T13:16:14.729Z,16.02
2023-04-04T13:18:24.760Z,16.12
2023-04-04T13:20:26.765Z,15.77
2023-04-04T13:22:35.697Z,15.67
2023-04-04T13:24:38.671Z,15.71
2023-04-04T13:26:41.406Z,15.77
2023-04-04T13:28:42.929Z,15.79
2023-04-04T13:30:48.910Z,15.24
2023-04-04T13:32:50.945Z,14.74
2023-04-04T13:34:52.605Z,14.19
2023-04-04T13:36:54.356Z,14.27
2023-04-04T13:38:55.829Z,14.06
2023-04-04T13:40:58.568Z,13.86
2023-04-04T13:43:00.022Z,14.02
2023-04-04T13:45:01.532Z,14.16
2023-04-04T13:47:03.053Z,14.22
2023-04-04T13:49:04.580Z,14.25
2023-04-04T13:51:06.062Z,14.34
2023-04-04T13:53:07.798Z,14.31
2023-04-04T13:55:10.255Z,14.13
2023-04-04T13:57:11.747Z,13.81
2023-04-04T13:59:13.437Z,13.39
2023-04-04T14:01:14.955Z,13.53
2023-04-04T14:03:17.677Z,13.66
2023-04-04T14:05:19.890Z,13.73
2023-04-04T14:07:21.346Z,13.80
2023-04-04T14:09:23.030Z,13.66
2023-04-04T14:11:25.703Z,13.48
2023-04-04T14:13:28.433Z,12.99
2023-04-04T14:15:29.923Z,12.71
2023-04-04T14:17:31.405Z,12.83
2023-04-04T14:19:33.000Z,12.90
2023-04-04T14:21:34.857Z,12.68
2023-04-04T14:23:36.576Z,12.12
2023-04-04T14:25:38.325Z,11.62
2023-04-04T14:27:40.070Z,11.34
2023-04-04T14:29:41.899Z,11.19
2023-04-04T14:31:43.366Z,11.19
2023-04-04T14:33:44.852Z,11.45
2023-04-04T14:35:46.426Z,11.56
2023-04-04T14:37:49.097Z,11.45
2023-04-04T14:39:50.655Z,11.06
2023-04-04T14:41:52.205Z,10.68
2023-04-04T14:43:53.669Z,10.64
2023-04-04T14:45:55.479Z,10.94
2023-04-04T14:47:56.958Z,11.16
2023-04-04T14:49:59.055Z,11.06
2023-04-04T14:52:01.366Z,11.04
2023-04-04T14:54:02.856Z,11.22
2023-04-04T14:56:04.501Z,11.45
2023-04-04T14:58:06.021Z,11.61
2023-04-04T15:00:08.840Z,11.34
2023-04-04T15:02:10.335Z,11.29
2023-04-04T15:04:11.915Z,11.38
2023-04-04T15:06:13.508Z,11.35
2023-04-04T15:08:15.040Z,11.02
2023-04-04T15:10:16.578Z,10.87
2023-04-04T15:12:18.045Z,10.99
2023-04-04T15:14:19.518Z,11.36
2023-04-04T15:16:21.580Z,11.56
2023-04-04T15:18:23.087Z,11.63
2023-04-04T15:20:24.661Z,11.63
2023-04-04T15:22:26.287Z,11.57
2023-04-04T15:24:27.760Z,11.52
2023-04-04T15:26:29.303Z,11.44
2023-04-04T15:28:31.031Z,11.25
2023-04-04T15:30:33.367Z,11.30
2023-04-04T15:32:34.893Z,11.21
2023-04-04T15:34:36.645Z,11.16
2023-04-04T15:36:38.157Z,11.22
2023-04-04T15:38:40.144Z,11.26
2023-04-04T15:40:42.094Z,11.39
2023-04-04T15:42:44.550Z,11.40
2023-04-04T15:44:46.119Z,11.38
2023-04-04T15:46:47.805Z,11.43
2023-04-04T15:48:51.887Z,11.42
2023-04-04T15:51:03.291Z,11.35
2023-04-04T15:53:04.809Z,11.29
2023-04-04T15:55:14.466Z,11.32
2023-04-04T15:57:16.083Z,11.37
2023-04-04T15:59:17.575Z,11.38
2023-04-04T16:01:19.187Z,11.35
2023-04-04T16:03:20.948Z,11.36
2023-04-04T16:05:22.545Z,11.32
2023-04-04T16:07:24.003Z,11.29
2023-04-04T16:09:25.498Z,11.22
2023-04-04T16:11:27.431Z,11.14
2023-04-04T16:13:29.558Z,11.12
2023-04-04T16:15:31.106Z,10.96
2023-04-04T16:17:33.315Z,10.86
2023-04-04T16:19:34.866Z,10.74
2023-04-04T16:21:36.474Z,10.63
2023-04-04T16:23:39.089Z,10.70
2023-04-04T16:25:40.758Z,10.73
2023-04-04T16:27:42.222Z,10.84
2023-04-04T16:29:43.681Z,10.81
2023-04-04T16:31:45.224Z,10.75
2023-04-04T16:33:47.699Z,10.69
2023-04-04T16:35:49.522Z,10.59
2023-04-04T16:37:51.320Z,10.53
2023-04-04T16:39:52.929Z,10.46
2023-04-04T16:41:54.447Z,10.40
2023-04-04T16:43:55.994Z,10.32
2023-04-04T16:45:57.474Z,10.26
2023-04-04T16:47:59.065Z,10.24
2023-04-04T16:50:01.340Z,10.16
2023-04-04T16:52:02.812Z,10.07
2023-04-04T16:54:04.505Z,9.95
2023-04-04T16:56:05.998Z,9.92
2023-04-04T16:58:07.494Z,9.92
2023-04-04T17:00:10.105Z,9.87
2023-04-04T17:02:11.746Z,9.84
2023-04-04T17:04:13.276Z,9.76
2023-04-04T17:06:14.847Z,9.73
2023-04-04T17:08:16.343Z,9.66
2023-04-04T17:10:19.280Z,9.59
2023-04-04T17:12:20.945Z,9.49
2023-04-04T17:14:22.531Z,9.43
2023-04-04T17:16:24.088Z,9.40
2023-04-04T17:18:25.635Z,9.36
2023-04-04T17:20:29.840Z,9.32
2023-04-04T17:22:32.183Z,9.28
2023-04-04T17:24:33.671Z,9.23
2023-04-04T17:26:35.276Z,9.20
2023-04-04T17:28:37.423Z,9.16
2023-04-04T17:30:39.215Z,9.11
2023-04-04T17:32:43.106Z,9.04
2023-04-04T17:34:44.870Z,9.02
2023-04-04T17:36:46.467Z,8.96
2023-04-04T17:38:47.946Z,8.91
2023-04-04T17:40:49.780Z,8.86
2023-04-04T17:42:51.361Z,8.80
2023-04-04T17:44:52.925Z,8.77
2023-04-04T17:46:55.348Z,8.74
2023-04-04T17:48:56.962Z,8.71
2023-04-04T17:50:58.647Z,8.65
2023-04-04T17:53:01.971Z,8.54
2023-04-04T17:55:04.168Z,8.44
2023-04-04T17:57:07.203Z,8.25
2023-04-04T17:59:08.741Z,7.96
2023-04-04T18:01:10.518Z,7.75
2023-04-04T18:03:12.849Z,7.43
2023-04-04T18:05:14.829Z,7.27
2023-04-04T18:07:17.080Z,7.30
2023-04-04T18:09:18.640Z,7.06
2023-04-04T18:11:20.208Z,6.90
2023-04-04T18:13:21.937Z,6.83
2023-04-04T18:15:26.525Z,6.65
2023-04-04T18:17:28.434Z,6.59
2023-04-04T18:19:30.263Z,6.47
2023-04-04T18:21:31.731Z,6.48
2023-04-04T18:23:33.186Z,6.56
2023-04-04T18:25:34.824Z,6.47
2023-04-04T18:27:36.373Z,6.43
2023-04-04T18:29:37.829Z,6.44
2023-04-04T18:31:39.363Z,6.33
2023-04-04T18:33:40.880Z,6.24
2023-04-04T18:35:42.390Z,6.11
2023-04-04T18:37:43.900Z,6.17
2023-04-04T18:39:45.477Z,6.15
2023-04-04T18:41:47.092Z,6.14
2023-04-04T18:43:48.605Z,6.12
2023-04-04T18:45:50.213Z,6.05
2023-04-04T18:47:51.770Z,6.07
2023-04-04T18:49:53.316Z,6.04
2023-04-04T18:51:54.839Z,6.03
2023-04-04T18:53:56.341Z,6.02
2023-04-04T18:55:58.311Z,5.96
2023-04-04T18:57:59.915Z,5.94
2023-04-04T19:00:01.621Z,5.92
2023-04-04T19:02:03.118Z,5.80
2023-04-04T19:04:05.942Z,5.68
2023-04-04T19:06:11.185Z,5.70
2023-04-04T19:08:15.134Z,5.66
2023-04-04T19:10:17.977Z,5.66
2023-04-04T19:12:19.453Z,5.65
2023-04-04T19:14:20.916Z,5.65
2023-04-04T19:16:24.072Z,5.63
2023-04-04T19:18:26.222Z,5.62
2023-04-04T19:20:27.703Z,5.62
2023-04-04T19:22:29.202Z,5.59
2023-04-04T19:24:30.696Z,5.57
2023-04-04T19:26:32.486Z,5.54
2023-04-04T19:28:33.979Z,5.52
2023-04-04T19:30:47.141Z,5.49
2023-04-04T19:32:48.712Z,5.45
2023-04-04T19:34:50.576Z,5.40
2023-04-04T19:36:52.034Z,5.35
2023-04-04T19:38:54.720Z,5.32
2023-04-04T19:40:59.133Z,5.26
2023-04-04T19:43:00.671Z,5.21
2023-04-04T19:45:03.924Z,5.17
2023-04-04T19:47:06.970Z,5.15
2023-04-04T19:49:12.439Z,5.12
2023-04-04T19:51:16.844Z,5.08
2023-04-04T19:53:22.724Z,5.04
2023-04-04T19:55:39.694Z,4.98
2023-04-04T19:57:41.338Z,4.93
2023-04-04T19:59:56.744Z,4.90
2023-04-04T20:02:00.786Z,4.84
2023-04-04T20:04:08.260Z,4.79
2023-04-04T20:06:11.606Z,4.70
2023-04-04T20:08:14.416Z,4.63
2023-04-04T20:10:36.275Z,4.56
2023-04-04T20:12:37.726Z,4.50
2023-04-04T20:14:39.197Z,4.44
2023-04-04T20:16:41.114Z,4.34
2023-04-04T20:18:46.526Z,4.32
2023-04-04T20:20:56.972Z,4.30
2023-04-04T20:22:58.674Z,4.27
2023-04-04T20:25:01.723Z,4.22
2023-04-04T20:27:05.871Z,4.18
2023-04-04T20:29:14.573Z,4.15
2023-04-04T20:31:18.121Z,4.10
2023-04-04T20:33:36.704Z,4.06
2023-04-04T20:35:38.261Z,4.00
2023-04-04T20:37:39.847Z,3.97
2023-04-04T20:39:55.734Z,3.92
2023-04-04T20:41:57.870Z,3.84
2023-04-04T20:43:59.796Z,3.81
2023-04-04T20:46:01.322Z,3.75
2023-04-04T20:48:06.843Z,3.72
2023-04-04T20:50:17.910Z,3.68
2023-04-04T20:52:23.314Z,3.62
2023-04-04T20:54:24.833Z,3.56
2023-04-04T20:56:38.048Z,3.52
2023-04-04T20:58:39.505Z,3.49
2023-04-04T21:00:42.334Z,3.44
2023-04-04T21:02:44.189Z,3.40
2023-04-04T21:04:49.483Z,3.34
2023-04-04T21:06:51.672Z,3.26
2023-04-04T21:08:53.120Z,3.23
2023-04-04T21:10:56.116Z,3.19
2023-04-04T21:13:00.938Z,3.13
2023-04-04T21:15:03.294Z,3.05
2023-04-04T21:17:06.940Z,3.02
2023-04-04T21:19:11.759Z,2.95
2023-04-04T21:21:18.950Z,2.87
2023-04-04T21:23:32.942Z,2.86
2023-04-04T21:25:44.581Z,2.82
2023-04-04T21:27:55.183Z,2.78
2023-04-04T21:29:56.708Z,2.75
2023-04-04T21:31:59.043Z,2.69
2023-04-04T21:34:07.776Z,2.52
2023-04-04T21:36:24.542Z,2.47
2023-04-04T21:38:32.017Z,2.50
2023-04-04T21:40:33.549Z,2.50
2023-04-04T21:42:35.007Z,2.48
2023-04-04T21:44:36.563Z,2.44
2023-04-04T21:46:40.489Z,2.41
2023-04-04T21:48:42.332Z,2.36
2023-04-04T21:50:43.752Z,2.34
2023-04-04T21:52:45.246Z,2.32
2023-04-04T21:54:46.685Z,2.28
2023-04-04T21:56:48.152Z,2.26
2023-04-04T21:58:49.701Z,2.23
2023-04-04T22:00:52.135Z,2.20
2023-04-04T22:02:53.686Z,2.16
2023-04-04T22:04:56.178Z,2.12
2023-04-04T22:06:58.365Z,2.08
2023-04-04T22:09:01.912Z,2.04
2023-04-04T22:11:04.034Z,2.00
2023-04-04T22:13:05.479Z,1.98
2023-04-04T22:15:08.546Z,1.97
2023-04-04T22:17:22.962Z,1.95
2023-04-04T22:19:24.426Z,1.92
2023-04-04T22:21:26.202Z,1.88
2023-04-04T22:23:27.719Z,1.86
2023-04-04T22:25:29.173Z,1.83
2023-04-04T22:27:32.585Z,1.81
2023-04-04T22:29:34.034Z,1.78
2023-04-04T22:31:37.584Z,1.77
2023-04-04T22:33:39.635Z,1.73
2023-04-04T22:35:41.431Z,1.71
2023-04-04T22:37:45.861Z,1.69
2023-04-04T22:39:50.751Z,1.66
2023-04-04T22:41:52.209Z,1.62
2023-04-04T22:43:53.715Z,1.58
2023-04-04T22:45:55.405Z,1.56
2023-04-04T22:47:58.122Z,1.52
2023-04-04T22:50:04.682Z,1.49
2023-04-04T22:52:12.877Z,1.46
2023-04-04T22:54:15.535Z,1.43
2023-04-04T22:56:17.041Z,1.40
2023-04-04T22:58:19.574Z,1.39
2023-04-04T23:00:21.189Z,1.38
2023-04-04T23:02:22.676Z,1.35
2023-04-04T23:04:24.157Z,1.31
2023-04-04T23:06:25.690Z,1.30
2023-04-04T23:08:27.142Z,1.28
2023-04-04T23:10:28.824Z,1.24
2023-04-04T23:12:30.866Z,1.22
2023-04-04T23:14:38.663Z,1.17
2023-04-04T23:16:42.321Z,1.14
2023-04-04T23:18:43.790Z,1.11
2023-04-04T23:20:45.638Z,1.09
2023-04-04T23:22:47.131Z,1.05
2023-04-04T23:24:48.677Z,1.02
2023-04-04T23:26:50.352Z,1.00
2023-04-04T23:28:51.806Z,0.97
2023-04-04T23:30:54.653Z,0.93
2023-04-04T23:32:56.233Z,0.90
2023-04-04T23:34:57.718Z,0.89
2023-04-04T23:36:59.565Z,0.85
2023-04-04T23:39:01.077Z,0.84
2023-04-04T23:41:02.560Z,0.80
2023-04-04T23:43:04.005Z,0.77
2023-04-04T23:45:06.239Z,0.75
2023-04-04T23:47:07.940Z,0.70
2023-04-04T23:49:11.528Z,0.68
2023-04-04T23:51:13.240Z,0.65
2023-04-04T23:53:14.725Z,0.62
2023-04-04T23:55:17.064Z,0.62
2023-04-04T23:57:18.559Z,0.58
2023-04-04T23:59:20.078Z,0.55
